createdAt,value
2018-07-19T00:01:08.404Z,99.90
2018-07-19T00:03:36.741Z,99.90
2018-07-19T00:06:05.553Z,99.90
2018-07-19T00:08:33.953Z,99.90
2018-07-19T00:11:02.276Z,99.90
2018-07-19T00:13:30.612Z,99.90
2018-07-19T00:15:58.948Z,99.90
2018-07-19T00:18:27.372Z,99.90
2018-07-19T00:20:57.156Z,99.90
2018-07-19T00:23:26.046Z,99.90
2018-07-19T00:25:55.038Z,99.90
2018-07-19T00:28:23.705Z,99.90
2018-07-19T00:30:52.096Z,99.90
2018-07-19T00:33:20.669Z,99.90
2018-07-19T00:35:49.134Z,99.90
2018-07-19T00:38:17.731Z,99.90
2018-07-19T00:40:46.071Z,99.90
2018-07-19T00:43:14.373Z,99.90
2018-07-19T00:45:42.703Z,99.90
2018-07-19T00:48:11.025Z,99.90
2018-07-19T00:50:39.390Z,99.90
2018-07-19T00:53:07.693Z,99.90
2018-07-19T00:55:36.000Z,99.90
2018-07-19T00:58:04.336Z,99.90
2018-07-19T01:00:32.716Z,99.90
2018-07-19T01:03:01.034Z,99.90
2018-07-19T01:05:29.351Z,99.90
2018-07-19T01:07:57.657Z,99.90
2018-07-19T01:10:25.980Z,99.90
2018-07-19T01:12:54.604Z,99.90
2018-07-19T01:15:22.948Z,99.90
2018-07-19T01:17:51.297Z,99.90
2018-07-19T01:20:19.656Z,99.90
2018-07-19T01:22:48.002Z,99.90
2018-07-19T01:25:16.624Z,99.90
2018-07-19T01:27:45.122Z,99.90
2018-07-19T01:30:13.464Z,99.90
2018-07-19T01:32:41.777Z,99.90
2018-07-19T01:35:10.195Z,99.90
2018-07-19T01:37:38.505Z,99.90
2018-07-19T01:40:06.915Z,99.90
2018-07-19T01:42:38.737Z,99.90
2018-07-19T01:45:07.886Z,99.90
2018-07-19T01:47:36.208Z,99.90
2018-07-19T01:50:05.765Z,99.90
2018-07-19T01:52:34.132Z,99.90
2018-07-19T01:55:02.489Z,99.90
2018-07-19T01:57:30.793Z,99.90
2018-07-19T01:59:59.137Z,99.90
2018-07-19T02:02:27.444Z,99.90
2018-07-19T02:04:55.792Z,99.90
2018-07-19T02:07:24.102Z,99.90
2018-07-19T02:09:52.425Z,99.90
2018-07-19T02:12:20.748Z,99.90
2018-07-19T02:14:49.077Z,99.90
2018-07-19T02:17:17.425Z,99.90
2018-07-19T02:19:45.793Z,99.90
2018-07-19T02:22:14.128Z,99.90
2018-07-19T02:24:42.461Z,99.90
2018-07-19T02:27:10.822Z,99.90
2018-07-19T02:29:39.141Z,99.90
2018-07-19T02:32:07.497Z,99.90
2018-07-19T02:34:35.816Z,99.90
2018-07-19T02:37:04.209Z,99.90
2018-07-19T02:39:32.533Z,99.90
2018-07-19T02:42:00.893Z,99.90
2018-07-19T02:44:29.224Z,99.90
2018-07-19T02:46:57.584Z,99.90
2018-07-19T02:49:25.896Z,99.90
2018-07-19T02:51:54.235Z,99.90
2018-07-19T02:54:22.578Z,99.90
2018-07-19T02:56:50.900Z,99.90
2018-07-19T02:59:19.279Z,99.90
2018-07-19T03:01:47.654Z,99.90
2018-07-19T03:04:15.999Z,99.90
2018-07-19T03:06:44.384Z,99.90
2018-07-19T03:09:12.697Z,99.90
2018-07-19T03:11:41.037Z,99.90
2018-07-19T03:14:09.356Z,99.90
2018-07-19T03:16:37.706Z,99.90
2018-07-19T03:19:06.012Z,99.90
2018-07-19T03:21:34.336Z,99.90
2018-07-19T03:24:02.675Z,99.90
2018-07-19T03:26:31.000Z,99.90
2018-07-19T03:28:59.321Z,99.90
2018-07-19T03:31:27.666Z,99.90
2018-07-19T03:33:55.979Z,99.90
2018-07-19T03:36:24.305Z,99.90
2018-07-19T03:38:52.638Z,99.90
2018-07-19T03:41:20.988Z,99.90
2018-07-19T03:43:49.287Z,99.90
2018-07-19T03:46:18.089Z,99.90
2018-07-19T03:48:46.464Z,99.90
2018-07-19T03:51:14.785Z,99.90
2018-07-19T03:53:43.155Z,99.90
2018-07-19T03:56:11.469Z,99.90
2018-07-19T03:58:39.820Z,99.90
2018-07-19T04:01:08.228Z,99.90
2018-07-19T04:03:36.573Z,99.90
2018-07-19T04:06:04.900Z,99.90
2018-07-19T04:08:33.227Z,99.90
2018-07-19T04:11:01.568Z,99.90
2018-07-19T04:13:29.876Z,99.90
2018-07-19T04:15:58.232Z,99.90
2018-07-19T04:18:26.539Z,99.90
2018-07-19T04:20:54.840Z,99.90
2018-07-19T04:23:23.162Z,99.90
2018-07-19T04:25:51.464Z,99.90
2018-07-19T04:28:19.982Z,99.90
2018-07-19T04:30:48.296Z,99.90
2018-07-19T04:33:16.653Z,99.90
2018-07-19T04:35:45.049Z,99.90
2018-07-19T04:38:13.408Z,99.90
2018-07-19T04:40:41.764Z,99.90
2018-07-19T04:43:10.096Z,99.90
2018-07-19T04:45:38.444Z,99.90
2018-07-19T04:48:06.811Z,99.90
2018-07-19T04:50:35.110Z,99.90
2018-07-19T04:55:31.600Z,99.90
2018-07-19T04:57:59.944Z,99.90
2018-07-19T05:00:33.684Z,99.90
2018-07-19T05:03:02.053Z,99.90
2018-07-19T05:05:30.394Z,99.90
2018-07-19T05:07:58.708Z,99.90
2018-07-19T05:10:27.041Z,99.90
2018-07-19T05:12:55.407Z,99.90
2018-07-19T05:15:23.752Z,99.90
2018-07-19T05:17:52.116Z,99.90
2018-07-19T05:20:20.445Z,99.90
2018-07-19T05:22:48.783Z,99.90
2018-07-19T05:25:17.133Z,99.90
2018-07-19T05:27:45.467Z,99.90
2018-07-19T05:30:13.769Z,99.90
2018-07-19T05:32:42.108Z,99.90
2018-07-19T05:35:10.416Z,99.90
2018-07-19T05:37:38.756Z,99.90
2018-07-19T05:40:07.075Z,99.90
2018-07-19T05:42:35.409Z,99.90
2018-07-19T05:45:03.798Z,99.90
2018-07-19T05:47:32.150Z,99.90
2018-07-19T05:50:00.460Z,99.90
2018-07-19T05:52:28.801Z,99.90
2018-07-19T05:54:57.093Z,99.90
2018-07-19T05:57:25.408Z,99.90
2018-07-19T05:59:53.740Z,99.90
2018-07-19T06:02:22.075Z,99.90
2018-07-19T06:07:18.440Z,99.90
2018-07-19T06:09:46.797Z,99.90
2018-07-19T06:12:15.120Z,99.90
2018-07-19T06:14:43.445Z,99.90
2018-07-19T06:17:11.808Z,99.90
2018-07-19T06:19:40.119Z,99.90
2018-07-19T06:22:08.453Z,99.90
2018-07-19T06:24:36.801Z,99.90
2018-07-19T06:27:05.285Z,99.90
2018-07-19T06:29:33.635Z,99.90
2018-07-19T06:32:02.006Z,99.90
2018-07-19T06:34:30.657Z,99.90
2018-07-19T06:36:58.970Z,99.90
2018-07-19T06:41:55.420Z,99.90
2018-07-19T06:44:23.820Z,99.90
2018-07-19T06:46:52.130Z,99.90
2018-07-19T06:49:20.493Z,99.90
2018-07-19T06:51:48.785Z,99.90
2018-07-19T06:54:17.101Z,99.90
2018-07-19T06:56:45.488Z,99.90
2018-07-19T06:59:13.844Z,99.90
2018-07-19T07:01:42.160Z,99.90
2018-07-19T07:04:10.494Z,99.90
2018-07-19T07:06:38.788Z,99.90
2018-07-19T07:09:09.073Z,99.90
2018-07-19T07:11:37.363Z,99.90
2018-07-19T07:14:05.939Z,99.90
2018-07-19T07:16:34.257Z,99.90
2018-07-19T07:19:02.576Z,99.90
2018-07-19T07:21:30.899Z,99.90
2018-07-19T07:23:59.235Z,99.90
2018-07-19T07:26:27.568Z,99.90
2018-07-19T07:28:55.929Z,99.90
2018-07-19T07:31:24.256Z,99.90
2018-07-19T07:33:53.632Z,99.90
2018-07-19T07:36:23.255Z,99.90
2018-07-19T07:38:51.674Z,99.90
2018-07-19T07:41:19.989Z,99.90
2018-07-19T07:43:48.309Z,99.90
2018-07-19T07:46:16.765Z,99.90
2018-07-19T07:48:45.120Z,99.90
2018-07-19T07:51:13.444Z,99.90
2018-07-19T07:53:41.777Z,99.90
2018-07-19T07:56:10.092Z,99.90
2018-07-19T07:58:38.417Z,99.90
2018-07-19T08:01:06.765Z,99.90
2018-07-19T08:03:35.112Z,99.90
2018-07-19T08:06:03.464Z,99.90
2018-07-19T08:08:31.784Z,99.90
2018-07-19T08:11:00.122Z,99.90
2018-07-19T08:13:28.448Z,99.90
2018-07-19T08:15:56.821Z,99.90
2018-07-19T08:18:25.107Z,99.90
2018-07-19T08:20:53.463Z,99.90
2018-07-19T08:23:21.768Z,99.90
2018-07-19T08:25:50.119Z,99.90
2018-07-19T08:28:18.442Z,99.90
2018-07-19T08:33:14.848Z,99.90
2018-07-19T08:35:43.174Z,99.90
2018-07-19T08:38:11.584Z,99.90
2018-07-19T08:40:40.021Z,99.90
2018-07-19T08:43:08.332Z,99.90
2018-07-19T08:45:36.704Z,99.90
2018-07-19T08:48:05.236Z,99.80
2018-07-19T08:50:33.589Z,97.80
2018-07-19T08:53:01.905Z,96.30
2018-07-19T08:55:30.228Z,94.30
2018-07-19T08:57:58.540Z,91.70
2018-07-19T09:00:26.884Z,91.00
2018-07-19T09:02:55.185Z,90.00
2018-07-19T09:05:23.537Z,91.00
2018-07-19T09:07:51.935Z,90.70
2018-07-19T09:10:20.268Z,88.70
2018-07-19T09:12:48.597Z,89.80
2018-07-19T09:15:16.968Z,88.80
2018-07-19T09:17:45.274Z,88.40
2018-07-19T09:20:13.608Z,86.00
2018-07-19T09:22:41.961Z,87.70
2018-07-19T09:25:10.251Z,88.30
2018-07-19T09:27:38.583Z,89.10
2018-07-19T09:30:07.224Z,90.40
2018-07-19T09:32:35.564Z,90.40
2018-07-19T09:35:03.888Z,88.60
2018-07-19T09:37:32.188Z,87.80
2018-07-19T09:40:00.530Z,84.60
2018-07-19T09:42:28.845Z,89.10
2018-07-19T09:44:57.177Z,84.50
2018-07-19T09:47:25.508Z,86.10
2018-07-19T09:49:53.836Z,86.40
2018-07-19T09:52:22.140Z,88.30
2018-07-19T09:54:54.625Z,88.90
2018-07-19T09:57:22.937Z,86.20
2018-07-19T09:59:51.277Z,84.70
2018-07-19T10:02:19.697Z,83.20
2018-07-19T10:04:48.008Z,84.00
2018-07-19T10:07:16.329Z,85.70
2018-07-19T10:09:44.666Z,81.20
2018-07-19T10:12:13.079Z,80.20
2018-07-19T10:14:41.441Z,79.30
2018-07-19T10:17:09.804Z,83.20
2018-07-19T10:19:38.145Z,77.00
2018-07-19T10:22:06.485Z,80.70
2018-07-19T10:24:34.807Z,75.70
2018-07-19T10:27:03.132Z,77.10
2018-07-19T10:29:31.456Z,77.50
2018-07-19T10:31:59.872Z,76.30
2018-07-19T10:34:28.175Z,76.40
2018-07-19T10:36:56.466Z,77.80
2018-07-19T10:39:24.853Z,77.90
2018-07-19T10:41:53.205Z,75.40
2018-07-19T10:44:21.576Z,73.40
2018-07-19T10:46:49.879Z,69.70
2018-07-19T10:49:18.185Z,69.90
2018-07-19T10:51:46.576Z,64.20
2018-07-19T10:54:14.805Z,65.10
2018-07-19T10:56:43.121Z,62.50
2018-07-19T10:59:11.404Z,65.00
2018-07-19T11:01:39.757Z,59.90
2018-07-19T11:04:08.073Z,56.20
2018-07-19T11:06:36.417Z,53.20
2018-07-19T11:09:07.305Z,53.20
2018-07-19T11:11:35.631Z,54.40
2018-07-19T11:14:03.936Z,54.30
2018-07-19T11:16:32.292Z,50.30
2018-07-19T11:19:00.559Z,52.30
2018-07-19T11:21:28.892Z,49.90
2018-07-19T11:23:57.196Z,49.90
2018-07-19T11:28:53.544Z,47.90
2018-07-19T11:31:21.861Z,47.60
2018-07-19T11:33:50.149Z,49.60
2018-07-19T11:36:18.473Z,47.90
2018-07-19T11:38:46.793Z,49.50
2018-07-19T11:41:15.149Z,47.10
2018-07-19T11:43:43.468Z,50.40
2018-07-19T11:46:11.777Z,55.70
2018-07-19T11:48:40.068Z,55.10
2018-07-19T11:51:08.374Z,53.80
2018-07-19T11:53:36.688Z,53.50
2018-07-19T11:56:05.042Z,59.20
2018-07-19T11:58:33.336Z,59.10
2018-07-19T12:01:01.640Z,59.30
2018-07-19T12:03:29.962Z,56.40
2018-07-19T12:05:58.300Z,55.20
2018-07-19T12:08:26.608Z,54.40
2018-07-19T12:10:54.897Z,53.60
2018-07-19T12:13:23.216Z,50.40
2018-07-19T12:15:51.545Z,51.60
2018-07-19T12:18:19.873Z,52.30
2018-07-19T12:20:48.216Z,57.30
2018-07-19T12:23:16.551Z,59.40
2018-07-19T12:25:44.899Z,58.00
2018-07-19T12:28:13.214Z,55.20
2018-07-19T12:30:41.537Z,54.30
2018-07-19T12:33:09.874Z,53.50
2018-07-19T12:35:38.164Z,52.10
2018-07-19T12:38:06.464Z,51.40
2018-07-19T12:40:34.777Z,49.60
2018-07-19T12:43:03.081Z,50.20
2018-07-19T12:45:31.370Z,46.90
2018-07-19T12:47:59.730Z,50.00
2018-07-19T12:50:28.021Z,47.10
2018-07-19T12:52:56.325Z,48.30
2018-07-19T12:55:24.641Z,47.90
2018-07-19T12:57:52.972Z,50.60
2018-07-19T13:00:21.318Z,47.40
2018-07-19T13:02:49.596Z,46.90
2018-07-19T13:05:17.907Z,48.90
2018-07-19T13:07:46.217Z,47.60
2018-07-19T13:10:14.496Z,46.40
2018-07-19T13:12:42.841Z,47.50
2018-07-19T13:15:11.178Z,46.80
2018-07-19T13:17:39.696Z,47.30
2018-07-19T13:20:08.016Z,47.60
2018-07-19T13:22:37.564Z,47.20
2018-07-19T13:25:05.945Z,50.20
2018-07-19T13:27:34.311Z,47.90
2018-07-19T13:30:02.968Z,52.00
2018-07-19T13:32:31.288Z,52.00
2018-07-19T13:35:00.608Z,52.30
2018-07-19T13:37:29.010Z,50.80
2018-07-19T13:39:57.324Z,50.10
2018-07-19T13:42:25.637Z,53.40
2018-07-19T13:44:53.977Z,52.80
2018-07-19T13:47:22.273Z,53.10
2018-07-19T13:49:50.601Z,54.40
2018-07-19T13:52:26.153Z,53.30
2018-07-19T13:54:54.465Z,55.70
2018-07-19T13:57:22.745Z,55.00
2018-07-19T13:59:51.049Z,55.20
2018-07-19T14:02:19.364Z,56.50
2018-07-19T14:04:47.735Z,56.80
2018-07-19T14:07:16.005Z,56.90
2018-07-19T14:09:44.316Z,56.80
2018-07-19T14:12:12.607Z,57.50
2018-07-19T14:14:40.909Z,54.50
2018-07-19T14:17:09.692Z,57.10
2018-07-19T14:19:38.010Z,54.40
2018-07-19T14:22:06.285Z,56.10
2018-07-19T14:24:34.594Z,55.60
2018-07-19T14:27:02.907Z,56.30
2018-07-19T14:29:31.241Z,53.40
2018-07-19T14:31:59.550Z,56.30
2018-07-19T14:34:27.901Z,53.80
2018-07-19T14:36:56.196Z,57.10
2018-07-19T14:39:24.517Z,56.50
2018-07-19T14:41:52.805Z,56.90
2018-07-19T14:44:21.472Z,55.00
2018-07-19T14:46:49.761Z,56.70
2018-07-19T14:49:18.070Z,55.80
2018-07-19T14:51:46.364Z,55.80
2018-07-19T14:54:14.732Z,58.20
2018-07-19T14:56:43.094Z,55.70
2018-07-19T14:59:11.425Z,55.80
2018-07-19T15:01:39.760Z,57.00
2018-07-19T15:04:08.089Z,59.40
2018-07-19T15:06:36.455Z,56.70
2018-07-19T15:09:08.243Z,59.60
2018-07-19T15:11:36.603Z,59.60
2018-07-19T15:14:05.132Z,55.80
2018-07-19T15:16:33.746Z,57.20
2018-07-19T15:19:02.071Z,57.00
2018-07-19T15:21:30.388Z,58.10
2018-07-19T15:23:58.704Z,57.30
2018-07-19T15:26:27.020Z,57.80
2018-07-19T15:28:55.380Z,57.30
2018-07-19T15:31:23.632Z,57.00
2018-07-19T15:33:51.977Z,56.90
2018-07-19T15:36:20.292Z,55.10
2018-07-19T15:38:48.608Z,58.00
2018-07-19T15:41:16.905Z,59.60
2018-07-19T15:43:45.197Z,58.50
2018-07-19T15:46:13.520Z,58.80
2018-07-19T15:48:41.821Z,57.40
2018-07-19T15:51:10.214Z,59.50
2018-07-19T15:53:38.732Z,57.20
2018-07-19T15:56:07.056Z,55.10
2018-07-19T15:58:35.353Z,54.40
2018-07-19T16:01:03.746Z,56.90
2018-07-19T16:03:32.056Z,57.30
2018-07-19T16:06:00.385Z,59.60
2018-07-19T16:08:28.656Z,57.20
2018-07-19T16:10:56.953Z,55.80
2018-07-19T16:13:25.270Z,59.20
2018-07-19T16:15:53.593Z,57.30
2018-07-19T16:18:21.888Z,58.40
2018-07-19T16:20:50.199Z,58.60
2018-07-19T16:23:18.485Z,60.20
2018-07-19T16:25:46.847Z,59.20
2018-07-19T16:28:15.138Z,58.30
2018-07-19T16:30:43.444Z,59.00
2018-07-19T16:33:11.729Z,57.80
2018-07-19T16:35:40.058Z,58.80
2018-07-19T16:38:08.362Z,58.10
2018-07-19T16:40:36.672Z,57.40
2018-07-19T16:43:04.988Z,57.70
2018-07-19T16:45:33.295Z,58.70
2018-07-19T16:48:01.591Z,58.40
2018-07-19T16:50:29.922Z,60.90
2018-07-19T16:52:58.208Z,60.20
2018-07-19T16:55:26.537Z,59.70
2018-07-19T16:57:54.861Z,58.70
2018-07-19T17:00:23.196Z,60.40
2018-07-19T17:02:51.517Z,59.20
2018-07-19T17:05:19.872Z,62.00
2018-07-19T17:07:48.168Z,59.80
2018-07-19T17:10:16.500Z,59.30
2018-07-19T17:12:44.822Z,60.10
2018-07-19T17:15:13.177Z,58.00
2018-07-19T17:17:41.465Z,59.30
2018-07-19T17:20:09.793Z,58.00
2018-07-19T17:22:38.089Z,59.60
2018-07-19T17:25:06.409Z,60.00
2018-07-19T17:27:34.705Z,58.90
2018-07-19T17:30:03.047Z,59.30
2018-07-19T17:32:31.340Z,63.20
2018-07-19T17:35:02.654Z,63.10
2018-07-19T17:37:30.960Z,60.90
2018-07-19T17:39:59.295Z,61.50
2018-07-19T17:42:27.616Z,61.60
2018-07-19T17:44:55.902Z,63.40
2018-07-19T17:47:24.232Z,60.80
2018-07-19T17:49:52.533Z,62.70
2018-07-19T17:52:20.980Z,64.30
2018-07-19T17:54:49.281Z,63.60
2018-07-19T17:57:17.604Z,62.40
2018-07-19T17:59:46.003Z,62.60
2018-07-19T18:02:14.368Z,63.80
2018-07-19T18:04:42.673Z,65.90
2018-07-19T18:07:11.080Z,63.00
2018-07-19T18:09:39.368Z,64.30
2018-07-19T18:12:07.877Z,65.60
2018-07-19T18:14:36.208Z,66.30
2018-07-19T18:17:04.543Z,68.90
2018-07-19T18:19:32.872Z,67.10
2018-07-19T18:22:01.209Z,65.90
2018-07-19T18:24:29.506Z,67.10
2018-07-19T18:26:57.844Z,67.80
2018-07-19T18:29:26.156Z,71.50
2018-07-19T18:31:54.456Z,71.40
2018-07-19T18:34:22.774Z,73.10
2018-07-19T18:36:51.092Z,73.40
2018-07-19T18:39:19.405Z,77.10
2018-07-19T18:41:47.725Z,77.40
2018-07-19T18:44:16.035Z,80.20
2018-07-19T18:46:44.371Z,81.60
2018-07-19T18:49:12.665Z,81.70
2018-07-19T18:51:40.997Z,79.10
2018-07-19T18:54:09.313Z,81.10
2018-07-19T18:56:37.638Z,79.70
2018-07-19T18:59:06.090Z,84.60
2018-07-19T19:01:34.444Z,84.50
2018-07-19T19:06:30.819Z,90.20
2018-07-19T19:08:59.147Z,90.90
2018-07-19T19:11:27.584Z,92.20
2018-07-19T19:13:55.889Z,92.90
2018-07-19T19:16:24.204Z,94.00
2018-07-19T19:18:52.516Z,93.70
2018-07-19T19:21:20.872Z,94.80
2018-07-19T19:23:49.226Z,96.20
2018-07-19T19:26:17.625Z,95.30
2018-07-19T19:28:45.924Z,97.20
2018-07-19T19:31:14.247Z,99.00
2018-07-19T19:33:42.556Z,99.90
2018-07-19T19:36:10.889Z,99.90
2018-07-19T19:38:39.204Z,99.90
2018-07-19T19:41:07.518Z,99.90
2018-07-19T19:43:35.833Z,99.90
2018-07-19T19:46:04.174Z,99.90
2018-07-19T19:48:36.097Z,99.90
2018-07-19T19:51:05.757Z,99.90
2018-07-19T19:53:34.098Z,99.90
2018-07-19T19:56:02.720Z,99.90
2018-07-19T19:58:31.128Z,99.90
2018-07-19T20:00:59.804Z,99.90
2018-07-19T20:03:28.404Z,99.90
2018-07-19T20:05:56.857Z,99.90
2018-07-19T20:08:25.178Z,99.90
2018-07-19T20:10:53.493Z,99.90
2018-07-19T20:13:21.837Z,99.90
2018-07-19T20:15:50.672Z,99.90
2018-07-19T20:18:19.021Z,99.90
2018-07-19T20:20:47.336Z,99.90
2018-07-19T20:23:15.728Z,99.90
2018-07-19T20:25:44.050Z,99.90
2018-07-19T20:28:12.361Z,99.90
2018-07-19T20:30:40.681Z,99.90
2018-07-19T20:33:09.001Z,99.90
2018-07-19T20:35:37.328Z,99.90
2018-07-19T20:38:05.658Z,99.90
2018-07-19T20:40:33.992Z,99.90
2018-07-19T20:43:02.327Z,99.90
2018-07-19T20:45:30.645Z,99.90
2018-07-19T20:47:59.036Z,99.90
2018-07-19T20:50:27.356Z,99.90
2018-07-19T20:52:55.676Z,99.90
2018-07-19T20:55:23.989Z,99.90
2018-07-19T20:57:52.340Z,99.90
2018-07-19T21:00:20.647Z,99.90
2018-07-19T21:02:48.995Z,99.90
2018-07-19T21:05:17.300Z,99.90
2018-07-19T21:07:45.736Z,99.90
2018-07-19T21:10:14.219Z,99.90
2018-07-19T21:12:42.589Z,99.90
2018-07-19T21:15:11.001Z,99.90
2018-07-19T21:17:39.304Z,99.90
2018-07-19T21:20:07.644Z,99.90
2018-07-19T21:22:35.964Z,99.90
2018-07-19T21:25:04.492Z,99.90
2018-07-19T21:27:32.809Z,99.90
2018-07-19T21:30:01.137Z,99.90
2018-07-19T21:32:29.441Z,99.90
2018-07-19T21:34:57.779Z,99.90
2018-07-19T21:37:26.088Z,99.90
2018-07-19T21:39:54.421Z,99.90
2018-07-19T21:42:22.828Z,99.90
2018-07-19T21:44:51.177Z,99.90
2018-07-19T21:47:19.476Z,99.90
2018-07-19T21:49:47.829Z,99.90
2018-07-19T21:52:16.197Z,99.90
2018-07-19T21:54:44.520Z,99.90
2018-07-19T21:57:12.804Z,99.90
2018-07-19T21:59:41.118Z,99.90
2018-07-19T22:02:10.800Z,99.90
2018-07-19T22:04:39.125Z,99.90
2018-07-19T22:07:07.446Z,99.90
2018-07-19T22:09:35.876Z,99.90
2018-07-19T22:12:04.132Z,99.90
2018-07-19T22:14:32.465Z,99.90
2018-07-19T22:17:00.799Z,99.90
2018-07-19T22:19:29.110Z,99.90
2018-07-19T22:21:57.452Z,99.90
2018-07-19T22:24:25.804Z,99.90
2018-07-19T22:26:54.161Z,99.90
2018-07-19T22:29:22.504Z,99.90
2018-07-19T22:31:50.865Z,99.90
2018-07-19T22:34:19.177Z,99.90
2018-07-19T22:36:47.493Z,99.90
2018-07-19T22:39:15.829Z,99.90
2018-07-19T22:41:44.139Z,99.90
2018-07-19T22:44:12.457Z,99.90
2018-07-19T22:46:40.872Z,99.90
2018-07-19T22:49:09.184Z,99.90
2018-07-19T22:51:37.536Z,99.90
2018-07-19T22:54:05.842Z,99.90
2018-07-19T22:56:34.142Z,99.90
2018-07-19T22:59:02.481Z,99.90
2018-07-19T23:01:30.793Z,99.90
2018-07-19T23:03:59.185Z,99.90
2018-07-19T23:06:27.472Z,99.90
2018-07-19T23:08:55.770Z,99.90
2018-07-19T23:11:24.061Z,99.90
2018-07-19T23:13:52.381Z,99.90
2018-07-19T23:16:20.756Z,99.90
2018-07-19T23:18:49.077Z,99.90
2018-07-19T23:21:17.400Z,99.90
2018-07-19T23:23:45.709Z,99.90
2018-07-19T23:26:14.021Z,99.90
2018-07-19T23:28:42.337Z,99.90
2018-07-19T23:31:10.661Z,99.90
2018-07-19T23:33:38.982Z,99.90
2018-07-19T23:36:19.161Z,99.90
2018-07-19T23:38:54.336Z,99.90
2018-07-19T23:41:27.848Z,99.90
2018-07-19T23:43:59.901Z,99.90
2018-07-19T23:46:33.311Z,99.90
2018-07-19T23:49:07.580Z,99.90
2018-07-19T23:51:37.625Z,99.90
2018-07-19T23:54:05.936Z,99.90
2018-07-19T23:56:34.579Z,99.90
2018-07-19T23:59:03.143Z,99.90
